createdAt,value
2019-02-05T00:02:28.422Z,74.96
2019-02-05T00:04:59.573Z,75.32
2019-02-05T00:07:31.150Z,74.37
2019-02-05T00:10:02.326Z,73.42
2019-02-05T00:12:33.432Z,74.06
2019-02-05T00:15:05.163Z,74.11
2019-02-05T00:17:36.242Z,73.92
2019-02-05T00:20:08.267Z,74.13
2019-02-05T00:22:39.587Z,74.52
2019-02-05T00:25:10.822Z,74.02
2019-02-05T00:27:41.988Z,74.32
2019-02-05T00:30:13.624Z,74.54
2019-02-05T00:32:45.316Z,75.07
2019-02-05T00:35:16.472Z,74.00
2019-02-05T00:37:47.811Z,73.71
2019-02-05T00:40:20.013Z,74.12
2019-02-05T00:42:51.284Z,74.18
2019-02-05T00:45:22.812Z,73.60
2019-02-05T00:47:54.032Z,73.79
2019-02-05T00:50:25.111Z,73.19
2019-02-05T00:52:56.298Z,73.78
2019-02-05T00:55:27.494Z,73.22
2019-02-05T00:57:58.647Z,72.77
2019-02-05T01:00:31.424Z,72.99
2019-02-05T01:03:02.786Z,73.06
2019-02-05T01:05:34.008Z,73.33
2019-02-05T01:08:05.452Z,73.20
2019-02-05T01:10:36.838Z,73.13
2019-02-05T01:13:08.135Z,72.89
2019-02-05T01:15:39.323Z,73.50
2019-02-05T01:18:10.515Z,72.88
2019-02-05T01:20:41.999Z,73.03
2019-02-05T01:23:13.170Z,72.98
2019-02-05T01:25:44.376Z,73.77
2019-02-05T01:28:15.698Z,74.01
2019-02-05T01:30:46.975Z,74.41
2019-02-05T01:33:18.052Z,74.84
2019-02-05T01:35:49.601Z,75.20
2019-02-05T01:38:20.751Z,74.99
2019-02-05T01:40:51.959Z,75.21
2019-02-05T01:43:23.111Z,74.27
2019-02-05T01:45:54.282Z,75.39
2019-02-05T01:48:25.352Z,75.55
2019-02-05T01:50:56.452Z,75.61
2019-02-05T01:53:27.744Z,74.78
2019-02-05T01:55:58.920Z,75.51
2019-02-05T01:58:30.051Z,75.53
2019-02-05T02:01:01.343Z,75.12
2019-02-05T02:03:32.515Z,74.95
2019-02-05T02:06:03.873Z,75.84
2019-02-05T02:08:35.028Z,75.77
2019-02-05T02:11:06.377Z,75.89
2019-02-05T02:13:37.534Z,75.44
2019-02-05T02:16:08.787Z,75.39
2019-02-05T02:18:39.788Z,75.88
2019-02-05T02:21:11.067Z,76.00
2019-02-05T02:23:42.207Z,76.82
2019-02-05T02:26:13.381Z,76.82
2019-02-05T02:28:44.836Z,76.65
2019-02-05T02:31:16.067Z,76.59
2019-02-05T02:33:47.134Z,75.93
2019-02-05T02:36:18.296Z,76.24
2019-02-05T02:38:49.473Z,76.78
2019-02-05T02:41:21.944Z,76.31
2019-02-05T02:43:53.044Z,76.18
2019-02-05T02:46:24.118Z,75.58
2019-02-05T02:48:55.180Z,75.83
2019-02-05T02:51:26.254Z,75.13
2019-02-05T02:53:57.583Z,74.18
2019-02-05T02:56:28.826Z,72.95
2019-02-05T02:58:59.891Z,73.39
2019-02-05T03:01:30.969Z,73.12
2019-02-05T03:04:02.038Z,73.44
2019-02-05T03:06:33.975Z,73.33
2019-02-05T03:09:10.391Z,73.61
2019-02-05T03:11:41.616Z,73.66
2019-02-05T03:14:12.691Z,74.03
2019-02-05T03:16:43.837Z,73.90
2019-02-05T03:19:15.099Z,73.89
2019-02-05T03:21:46.695Z,74.07
2019-02-05T03:24:17.850Z,74.42
2019-02-05T03:26:49.084Z,73.84
2019-02-05T03:29:20.358Z,73.80
2019-02-05T03:31:51.623Z,73.00
2019-02-05T03:34:22.713Z,73.59
2019-02-05T03:36:53.989Z,73.41
2019-02-05T03:39:25.169Z,73.09
2019-02-05T03:41:56.341Z,72.75
2019-02-05T03:44:27.480Z,73.08
2019-02-05T03:46:58.745Z,73.06
2019-02-05T03:49:30.963Z,72.87
2019-02-05T03:52:11.323Z,73.03
2019-02-05T03:55:22.642Z,73.35
2019-02-05T03:58:56.122Z,73.45
2019-02-05T04:01:55.765Z,73.27
2019-02-05T04:05:08.906Z,73.23
2019-02-05T04:08:19.346Z,73.89
2019-02-05T04:11:30.413Z,74.77
2019-02-05T04:14:40.206Z,73.88
2019-02-05T04:17:44.317Z,72.79
2019-02-05T04:20:52.572Z,73.62
2019-02-05T04:23:48.154Z,74.31
2019-02-05T04:26:41.238Z,74.76
2019-02-05T04:29:47.979Z,74.06
2019-02-05T04:32:36.695Z,74.14
2019-02-05T04:35:30.635Z,74.28
2019-02-05T04:38:48.762Z,75.21
2019-02-05T04:42:01.381Z,75.52
2019-02-05T04:44:58.003Z,76.16
2019-02-05T04:48:07.003Z,75.99
2019-02-05T04:51:12.204Z,76.09
2019-02-05T04:54:12.925Z,76.73
2019-02-05T04:56:55.943Z,76.40
2019-02-05T04:59:50.988Z,76.13
2019-02-05T05:02:46.760Z,76.02
2019-02-05T05:05:56.365Z,75.93
2019-02-05T05:08:54.326Z,76.54
2019-02-05T05:11:25.722Z,77.56
2019-02-05T05:13:56.909Z,76.98
2019-02-05T05:16:28.105Z,77.33
2019-02-05T05:18:59.607Z,77.17
2019-02-05T05:21:32.427Z,76.58
2019-02-05T05:24:03.953Z,75.16
2019-02-05T05:26:35.133Z,75.06
2019-02-05T05:29:06.714Z,75.15
2019-02-05T05:31:37.945Z,76.08
2019-02-05T05:34:09.090Z,75.91
2019-02-05T05:36:49.342Z,76.56
2019-02-05T05:39:20.925Z,76.72
2019-02-05T05:41:52.071Z,75.80
2019-02-05T05:44:23.255Z,75.80
2019-02-05T05:46:54.437Z,75.87
2019-02-05T05:49:25.773Z,76.12
2019-02-05T05:51:56.852Z,75.77
2019-02-05T05:56:57.587Z,76.52
2019-02-05T05:59:28.801Z,76.32
2019-02-05T06:01:59.980Z,76.24
2019-02-05T06:04:31.177Z,76.57
2019-02-05T06:07:02.287Z,77.02
2019-02-05T06:09:33.725Z,77.20
2019-02-05T06:12:04.983Z,76.98
2019-02-05T06:14:36.275Z,77.12
2019-02-05T06:17:07.835Z,77.20
2019-02-05T06:19:38.988Z,77.35
2019-02-05T06:22:10.249Z,77.66
2019-02-05T06:24:41.435Z,77.26
2019-02-05T06:27:12.715Z,77.24
2019-02-05T06:29:43.889Z,77.55
2019-02-05T06:32:15.161Z,77.87
2019-02-05T06:34:46.343Z,78.08
2019-02-05T06:37:17.615Z,78.37
2019-02-05T06:39:48.685Z,78.43
2019-02-05T06:42:19.882Z,78.56
2019-02-05T06:44:51.244Z,78.69
2019-02-05T06:47:22.428Z,79.03
2019-02-05T06:49:53.638Z,79.01
2019-02-05T06:52:24.849Z,79.04
2019-02-05T06:54:55.983Z,77.92
2019-02-05T06:57:27.070Z,78.02
2019-02-05T06:59:58.080Z,77.40
2019-02-05T07:02:29.253Z,77.18
2019-02-05T07:05:00.453Z,77.21
2019-02-05T07:07:31.535Z,77.53
2019-02-05T07:10:02.755Z,77.45
2019-02-05T07:12:34.441Z,77.18
2019-02-05T07:15:06.744Z,77.21
2019-02-05T07:17:48.924Z,77.51
2019-02-05T07:20:12.922Z,77.71
2019-02-05T07:22:44.364Z,78.69
2019-02-05T07:25:17.243Z,78.45
2019-02-05T07:27:48.514Z,78.23
2019-02-05T07:30:22.530Z,77.85
2019-02-05T07:32:53.618Z,77.50
2019-02-05T07:35:24.788Z,78.04
2019-02-05T07:37:56.957Z,77.37
2019-02-05T07:40:28.146Z,77.37
2019-02-05T07:42:59.362Z,76.76
2019-02-05T07:45:30.498Z,76.73
2019-02-05T07:48:01.574Z,76.96
2019-02-05T07:50:32.787Z,76.85
2019-02-05T07:53:03.951Z,76.46
2019-02-05T07:55:36.027Z,75.91
2019-02-05T07:58:07.189Z,75.47
2019-02-05T08:00:38.337Z,75.01
2019-02-05T08:03:09.344Z,74.99
2019-02-05T08:05:40.482Z,74.42
2019-02-05T08:08:12.422Z,74.53
2019-02-05T08:10:43.636Z,74.46
2019-02-05T08:13:14.877Z,73.96
2019-02-05T08:15:46.022Z,74.33
2019-02-05T08:18:17.205Z,75.14
2019-02-05T08:20:48.357Z,73.96
2019-02-05T08:23:19.387Z,74.17
2019-02-05T08:25:51.523Z,72.86
2019-02-05T08:28:22.779Z,73.45
2019-02-05T08:30:53.928Z,73.72
2019-02-05T08:33:25.254Z,73.94
2019-02-05T08:35:56.487Z,72.47
2019-02-05T08:38:27.909Z,71.98
2019-02-05T08:40:59.085Z,71.76
2019-02-05T08:43:30.325Z,70.40
2019-02-05T08:46:01.495Z,69.29
2019-02-05T08:48:32.709Z,69.21
2019-02-05T08:51:03.965Z,69.60
2019-02-05T08:53:35.269Z,69.40
2019-02-05T08:56:06.460Z,68.87
2019-02-05T08:58:37.591Z,68.46
2019-02-05T09:01:08.839Z,69.00
2019-02-05T09:03:40.067Z,69.20
2019-02-05T09:06:11.159Z,68.70
2019-02-05T09:08:42.709Z,67.96
2019-02-05T09:11:14.013Z,68.70
2019-02-05T09:13:45.202Z,67.96
2019-02-05T09:16:16.504Z,68.24
2019-02-05T09:18:47.686Z,68.17
2019-02-05T09:21:19.142Z,67.94
2019-02-05T09:23:50.243Z,67.05
2019-02-05T09:26:21.408Z,68.18
2019-02-05T09:28:52.657Z,70.68
2019-02-05T09:31:23.792Z,69.49
2019-02-05T09:33:54.880Z,69.01
2019-02-05T09:36:26.310Z,67.22
2019-02-05T09:38:57.419Z,66.58
2019-02-05T09:41:28.558Z,66.43
2019-02-05T09:44:00.080Z,66.80
2019-02-05T09:46:31.151Z,66.18
2019-02-05T09:49:02.345Z,66.72
2019-02-05T09:51:33.466Z,63.69
2019-02-05T09:54:04.933Z,63.11
2019-02-05T09:56:36.158Z,62.99
2019-02-05T09:59:07.336Z,62.83
2019-02-05T10:01:38.666Z,66.03
2019-02-05T10:04:10.144Z,65.14
2019-02-05T10:06:41.451Z,64.37
2019-02-05T10:09:12.881Z,64.00
2019-02-05T10:11:44.148Z,63.79
2019-02-05T10:14:15.367Z,63.81
2019-02-05T10:16:46.541Z,65.70
2019-02-05T10:19:17.916Z,67.50
2019-02-05T10:21:49.010Z,66.76
2019-02-05T10:24:20.197Z,65.89
2019-02-05T10:26:51.254Z,66.05
2019-02-05T10:29:22.427Z,66.10
2019-02-05T10:31:53.777Z,65.01
2019-02-05T10:34:33.893Z,64.39
2019-02-05T10:36:57.831Z,64.97
2019-02-05T10:39:29.004Z,66.43
2019-02-05T10:42:00.262Z,66.17
2019-02-05T10:44:31.421Z,65.72
2019-02-05T10:47:02.555Z,65.26
2019-02-05T10:49:33.744Z,64.77
2019-02-05T10:52:04.903Z,64.23
2019-02-05T10:54:36.109Z,63.64
2019-02-05T10:57:07.187Z,64.16
2019-02-05T10:59:38.666Z,63.70
2019-02-05T11:02:09.880Z,62.52
2019-02-05T11:04:41.028Z,62.37
2019-02-05T11:07:12.095Z,61.99
2019-02-05T11:09:43.322Z,61.99
2019-02-05T11:12:14.501Z,62.98
2019-02-05T11:14:45.958Z,63.94
2019-02-05T11:17:17.089Z,64.09
2019-02-05T11:19:48.174Z,63.98
2019-02-05T11:22:19.664Z,63.16
2019-02-05T11:24:50.716Z,61.73
2019-02-05T11:27:21.861Z,60.19
2019-02-05T11:29:53.860Z,60.73
2019-02-05T11:32:24.952Z,63.12
2019-02-05T11:34:55.960Z,60.75
2019-02-05T11:37:27.213Z,59.44
2019-02-05T11:39:58.396Z,59.22
2019-02-05T11:42:29.844Z,56.84
2019-02-05T11:45:01.038Z,53.91
2019-02-05T11:47:33.515Z,52.70
2019-02-05T11:50:06.256Z,51.80
2019-02-05T11:52:37.402Z,47.56
2019-02-05T11:55:10.792Z,40.16
2019-02-05T11:57:41.926Z,33.07
2019-02-05T12:00:18.798Z,28.62
2019-02-05T12:02:49.933Z,25.39
2019-02-05T12:05:21.010Z,23.44
2019-02-05T12:07:52.222Z,21.16
2019-02-05T12:10:23.384Z,20.79
2019-02-05T12:12:54.459Z,19.98
2019-02-05T12:15:25.692Z,19.67
2019-02-05T12:17:57.815Z,18.33
2019-02-05T12:20:29.007Z,17.85
2019-02-05T12:23:00.630Z,17.23
2019-02-05T12:25:31.825Z,17.15
2019-02-05T12:28:02.958Z,17.38
2019-02-05T12:30:44.556Z,17.96
2019-02-05T12:33:08.437Z,17.94
2019-02-05T12:35:39.675Z,19.82
2019-02-05T12:38:12.304Z,18.47
2019-02-05T12:40:43.687Z,18.03
2019-02-05T12:43:14.857Z,18.28
2019-02-05T12:45:47.738Z,19.25
2019-02-05T12:48:18.931Z,20.46
2019-02-05T12:50:50.465Z,17.96
2019-02-05T12:53:21.625Z,17.54
2019-02-05T12:55:52.780Z,16.99
2019-02-05T12:58:23.925Z,17.33
2019-02-05T13:00:59.818Z,16.80
2019-02-05T13:03:28.428Z,16.54
2019-02-05T13:05:59.518Z,15.57
2019-02-05T13:08:30.676Z,16.63
2019-02-05T13:11:01.694Z,17.01
2019-02-05T13:13:32.846Z,16.37
2019-02-05T13:16:04.480Z,15.98
2019-02-05T13:18:35.626Z,15.49
2019-02-05T13:21:06.866Z,15.86
2019-02-05T13:23:37.992Z,16.47
2019-02-05T13:26:09.644Z,16.46
2019-02-05T13:28:40.697Z,15.82
2019-02-05T13:31:11.921Z,16.16
2019-02-05T13:33:43.857Z,16.04
2019-02-05T13:36:14.943Z,17.43
2019-02-05T13:38:47.062Z,18.24
2019-02-05T13:41:18.614Z,17.90
2019-02-05T13:43:49.820Z,19.13
2019-02-05T13:46:20.980Z,21.36
2019-02-05T13:48:52.015Z,23.27
2019-02-05T13:51:23.202Z,22.93
2019-02-05T13:53:54.307Z,24.43
2019-02-05T13:56:25.505Z,24.64
2019-02-05T13:58:56.574Z,24.41
2019-02-05T14:01:27.733Z,25.77
2019-02-05T14:03:58.804Z,26.60
2019-02-05T14:06:30.034Z,29.44
2019-02-05T14:09:10.247Z,30.58
2019-02-05T14:11:35.864Z,31.82
2019-02-05T14:14:07.019Z,34.17
2019-02-05T14:16:38.194Z,35.93
2019-02-05T14:19:09.390Z,34.60
2019-02-05T14:21:40.743Z,34.70
2019-02-05T14:24:11.880Z,35.56
2019-02-05T14:26:43.128Z,36.25
2019-02-05T14:29:14.287Z,40.01
2019-02-05T14:31:45.452Z,40.54
2019-02-05T14:34:16.918Z,41.43
2019-02-05T14:36:48.132Z,45.18
2019-02-05T14:39:20.173Z,45.79
2019-02-05T14:41:51.382Z,47.03
2019-02-05T14:44:22.570Z,47.71
2019-02-05T14:46:53.916Z,49.19
2019-02-05T14:49:24.977Z,50.27
2019-02-05T14:51:57.896Z,51.15
2019-02-05T14:54:28.975Z,51.92
2019-02-05T14:57:00.095Z,53.11
2019-02-05T14:59:31.486Z,54.27
2019-02-05T15:02:02.559Z,54.24
2019-02-05T15:04:33.725Z,54.85
2019-02-05T15:07:06.152Z,55.89
2019-02-05T15:09:37.320Z,56.49
2019-02-05T15:12:08.832Z,57.16
2019-02-05T15:14:39.898Z,58.93
2019-02-05T15:17:11.033Z,59.21
2019-02-05T15:19:42.346Z,59.65
2019-02-05T15:22:13.537Z,59.94
2019-02-05T15:24:45.067Z,59.95
2019-02-05T15:27:16.262Z,60.85
2019-02-05T15:29:47.408Z,60.60
2019-02-05T15:32:37.507Z,60.64
2019-02-05T15:35:09.305Z,60.79
2019-02-05T15:37:40.466Z,61.89
2019-02-05T15:40:13.187Z,62.78
2019-02-05T15:42:44.440Z,62.67
2019-02-05T15:45:16.791Z,62.19
2019-02-05T15:47:47.911Z,62.16
2019-02-05T15:50:19.358Z,62.81
2019-02-05T15:52:50.525Z,63.44
2019-02-05T15:55:23.146Z,63.85
2019-02-05T15:57:54.396Z,64.22
2019-02-05T16:00:25.995Z,64.56
2019-02-05T16:02:57.441Z,65.42
2019-02-05T16:05:28.637Z,65.27
2019-02-05T16:08:00.141Z,65.47
2019-02-05T16:10:31.375Z,65.92
2019-02-05T16:13:03.277Z,65.56
2019-02-05T16:15:34.554Z,65.96
2019-02-05T16:18:06.673Z,66.74
2019-02-05T16:20:38.489Z,66.80
2019-02-05T16:23:09.717Z,66.04
2019-02-05T16:25:42.037Z,66.20
2019-02-05T16:28:13.177Z,66.92
2019-02-05T16:30:45.603Z,68.14
2019-02-05T16:33:16.741Z,68.29
2019-02-05T16:35:47.804Z,68.55
2019-02-05T16:38:19.477Z,69.03
2019-02-05T16:40:52.319Z,69.28
2019-02-05T16:43:24.157Z,69.51
2019-02-05T16:45:55.371Z,69.71
2019-02-05T16:48:26.540Z,69.83
2019-02-05T16:50:58.244Z,70.05
2019-02-05T16:53:29.460Z,70.72
2019-02-05T16:56:00.677Z,70.69
2019-02-05T16:58:31.812Z,70.46
2019-02-05T17:01:03.405Z,70.27
2019-02-05T17:03:34.963Z,70.19
2019-02-05T17:06:06.414Z,70.41
2019-02-05T17:08:37.580Z,70.86
2019-02-05T17:11:08.676Z,71.49
2019-02-05T17:13:39.687Z,72.11
2019-02-05T17:16:10.934Z,72.50
2019-02-05T17:18:42.113Z,72.81
2019-02-05T17:21:13.483Z,72.82
2019-02-05T17:23:44.573Z,73.33
2019-02-05T17:26:16.628Z,73.03
2019-02-05T17:28:47.875Z,72.88
2019-02-05T17:31:19.024Z,72.62
2019-02-05T17:33:50.040Z,72.46
2019-02-05T17:36:21.126Z,72.59
2019-02-05T17:38:52.245Z,72.79
2019-02-05T17:41:24.562Z,72.69
2019-02-05T17:43:55.746Z,73.07
2019-02-05T17:46:27.198Z,72.39
2019-02-05T17:48:58.344Z,72.06
2019-02-05T17:51:29.432Z,72.29
2019-02-05T17:54:00.634Z,71.91
2019-02-05T17:56:31.901Z,71.90
2019-02-05T17:59:02.994Z,72.35
2019-02-05T18:01:34.207Z,72.43
2019-02-05T18:04:05.721Z,72.38
2019-02-05T18:06:36.929Z,72.49
2019-02-05T18:09:09.416Z,72.64
2019-02-05T18:11:40.593Z,72.49
2019-02-05T18:14:11.815Z,72.57
2019-02-05T18:16:45.255Z,72.58
2019-02-05T18:19:15.846Z,72.62
2019-02-05T18:21:47.315Z,72.97
2019-02-05T18:24:18.421Z,73.11
2019-02-05T18:26:49.432Z,72.92
2019-02-05T18:29:20.605Z,72.99
2019-02-05T18:31:51.780Z,72.77
2019-02-05T18:34:23.222Z,73.51
2019-02-05T18:36:54.449Z,73.00
2019-02-05T18:39:25.631Z,72.73
2019-02-05T18:41:57.732Z,72.69
2019-02-05T18:44:29.145Z,72.71
2019-02-05T18:47:00.447Z,72.95
2019-02-05T18:49:32.304Z,72.75
2019-02-05T18:52:03.464Z,72.61
2019-02-05T18:54:34.709Z,72.48
2019-02-05T18:57:06.248Z,72.51
2019-02-05T18:59:37.429Z,72.57
2019-02-05T19:02:08.688Z,72.86
2019-02-05T19:04:40.162Z,72.94
2019-02-05T19:07:11.250Z,72.89
2019-02-05T19:09:42.352Z,73.12
2019-02-05T19:12:13.508Z,73.16
2019-02-05T19:14:46.034Z,73.03
2019-02-05T19:17:17.177Z,73.14
2019-02-05T19:19:48.390Z,73.83
2019-02-05T19:22:19.421Z,73.22
2019-02-05T19:24:58.159Z,72.98
2019-02-05T19:27:29.328Z,74.00
2019-02-05T19:30:00.407Z,74.63
2019-02-05T19:32:31.663Z,74.44
2019-02-05T19:35:02.821Z,73.89
2019-02-05T19:37:33.902Z,74.44
2019-02-05T19:40:05.743Z,74.85
2019-02-05T19:42:37.801Z,74.22
2019-02-05T19:45:34.578Z,74.07
2019-02-05T19:48:07.381Z,73.97
2019-02-05T19:50:38.593Z,73.91
2019-02-05T19:53:09.754Z,74.53
2019-02-05T19:55:40.843Z,74.36
2019-02-05T19:58:12.112Z,73.06
2019-02-05T20:00:44.258Z,73.92
2019-02-05T20:03:15.741Z,74.10
2019-02-05T20:05:46.890Z,74.59
2019-02-05T20:08:18.081Z,75.05
2019-02-05T20:10:49.254Z,74.77
2019-02-05T20:13:20.271Z,74.66
2019-02-05T20:15:51.427Z,74.87
2019-02-05T20:18:22.520Z,75.07
2019-02-05T20:20:53.704Z,76.33
2019-02-05T20:23:24.778Z,76.48
2019-02-05T20:25:56.790Z,76.95
2019-02-05T20:28:27.908Z,76.95
2019-02-05T20:30:59.351Z,76.27
2019-02-05T20:33:30.455Z,76.34
2019-02-05T20:36:01.666Z,77.16
2019-02-05T20:38:32.747Z,77.65
2019-02-05T20:41:03.875Z,77.09
2019-02-05T20:43:34.990Z,77.22
2019-02-05T20:46:06.305Z,76.48
2019-02-05T20:48:37.387Z,76.50
2019-02-05T20:51:08.624Z,76.37
2019-02-05T20:53:39.743Z,75.55
2019-02-05T20:56:10.905Z,74.77
2019-02-05T20:58:42.325Z,74.80
2019-02-05T21:01:13.418Z,74.98
2019-02-05T21:03:44.736Z,74.95
2019-02-05T21:06:15.909Z,75.21
2019-02-05T21:08:47.070Z,75.45
2019-02-05T21:11:18.177Z,75.56
2019-02-05T21:13:49.439Z,75.98
2019-02-05T21:16:20.477Z,76.43
2019-02-05T21:18:51.659Z,76.23
2019-02-05T21:21:22.907Z,75.85
2019-02-05T21:23:54.066Z,75.44
2019-02-05T21:26:25.154Z,76.36
2019-02-05T21:28:56.296Z,77.11
2019-02-05T21:31:27.471Z,77.33
2019-02-05T21:33:58.795Z,77.40
2019-02-05T21:36:29.971Z,78.17
2019-02-05T21:39:01.244Z,78.34
2019-02-05T21:41:32.629Z,78.48
2019-02-05T21:44:04.133Z,78.36
2019-02-05T21:46:35.308Z,78.26
2019-02-05T21:49:06.462Z,77.56
2019-02-05T21:51:40.883Z,77.59
2019-02-05T21:54:12.541Z,77.13
2019-02-05T21:56:43.551Z,77.27
2019-02-05T21:59:14.551Z,76.86
2019-02-05T22:01:45.847Z,76.82
2019-02-05T22:04:26.692Z,76.88
2019-02-05T22:06:49.880Z,76.84
2019-02-05T22:09:21.026Z,77.19
2019-02-05T22:11:52.227Z,77.39
2019-02-05T22:14:23.308Z,77.40
2019-02-05T22:16:54.407Z,76.96
2019-02-05T22:19:27.214Z,76.57
2019-02-05T22:21:58.235Z,76.38
2019-02-05T22:24:29.392Z,76.38
2019-02-05T22:27:00.934Z,76.21
2019-02-05T22:29:32.027Z,76.25
2019-02-05T22:32:03.191Z,76.73
2019-02-05T22:34:39.414Z,77.03
2019-02-05T22:37:08.272Z,77.44
2019-02-05T22:39:39.807Z,77.45
2019-02-05T22:42:10.978Z,77.36
2019-02-05T22:44:42.349Z,77.51
2019-02-05T22:47:13.470Z,77.47
2019-02-05T22:49:44.550Z,77.60
2019-02-05T22:52:15.567Z,78.36
2019-02-05T22:54:46.859Z,78.29
2019-02-05T22:57:17.893Z,78.15
2019-02-05T22:59:49.068Z,78.28
2019-02-05T23:02:20.369Z,78.26
2019-02-05T23:05:29.738Z,78.69
2019-02-05T23:08:00.898Z,78.73
2019-02-05T23:10:45.420Z,78.99
2019-02-05T23:13:18.528Z,79.58
2019-02-05T23:15:51.698Z,79.65
2019-02-05T23:18:23.080Z,79.91
2019-02-05T23:20:54.284Z,80.16
2019-02-05T23:23:25.464Z,80.12
2019-02-05T23:25:56.713Z,79.89
2019-02-05T23:28:27.887Z,79.95
2019-02-05T23:30:59.032Z,79.95
2019-02-05T23:33:30.283Z,80.07
2019-02-05T23:36:01.298Z,79.75
2019-02-05T23:38:33.421Z,79.27
2019-02-05T23:41:04.576Z,79.20
2019-02-05T23:43:36.091Z,79.02
2019-02-05T23:46:07.320Z,79.00
2019-02-05T23:48:38.540Z,79.18
2019-02-05T23:51:09.906Z,79.63
2019-02-05T23:53:41.334Z,79.41
2019-02-05T23:56:12.779Z,79.44
2019-02-05T23:58:44.789Z,79.44
